Weather observations for the past three days for
Austin Airport
Imperial (Metric)
Date Time (pdt) Wind (mph) Vis. (mi.) Weather Sky Cond. Temperature (ºF) Relative Humidity Wind Chill (°F) Heat Index (°F) Pressure Precipitation (in)
Air Dwpt 6 hour altimeter (in) sea level (mb) 1 hr 3 hr 6 hr
Max. Min.
02 15:15 N 5 10.00 Fair CLR 68.9 19.6 15% 30.04 0.0
02 14:55 S 6 10.00 Fair CLR 68.9 19.6 15% 30.05 0.0
02 14:35 SW 7 10.00 Fair CLR 69.1 19.8 15% 30.06 0.0
02 14:15 W 3 10.00 Fair CLR 68.9 19.2 15% 30.06 0.0
02 13:55 W 8 10.00 Fair CLR 68.5 19.8 15% 30.07 0.0
02 13:35 W 8 10.00 Fair CLR 67.8 18.9 15% 30.08 0.0
02 13:15 W 3 10.00 Fair CLR 69.6 20.5 15% 30.08 0.0
02 12:55 Calm 10.00 Fair CLR 67.3 18 15% 30.09 0.0
02 12:35 SW 7 10.00 Fair CLR 67.1 18.7 16% 30.09 0.0
02 12:15 SW 7 10.00 Fair CLR 67.8 19 15% 30.1 0.0
02 11:55 W 6 10.00 Fair CLR 66.4 18.9 16% 30.1 0.0
02 11:35 W 5 10.00 Fair CLR 66.7 21.2 18% 30.1 0.0
02 11:15 Calm 10.00 Fair CLR 65.5 19.8 17% 30.1 0.0
02 10:55 Calm 10.00 Fair CLR 64.2 19.8 65.7 27.3 18% 30.11 0.0
02 10:35 N 3 10.00 Fair CLR 64.4 21.6 19% 30.11 0.0
02 10:15 NW 5 10.00 Partly Cloudy SCT120 62.2 21.4 21% 30.12 0.0
02 09:55 W 5 10.00 Mostly Cloudy BKN110 61.2 23.5 24% 30.12 0.0
02 09:35 W 3 10.00 Mostly Cloudy BKN110 58.8 25 27% 30.12 0.0
02 09:15 Calm 10.00 Fair CLR 56.1 24.8 30% 30.12 0.0
02 08:55 Calm 10.00 Fair CLR 52.7 26.2 36% 30.13 0.0
02 08:35 Calm 10.00 Fair CLR 48.9 24.3 38% 30.13 0.0
02 08:15 Calm 10.00 Fair CLR 46.6 25.2 43% 30.13 0.0
02 07:55 Calm 10.00 Partly Cloudy SCT110 43.5 24.4 47% 30.13 0.0
02 07:35 Calm 10.00 Partly Cloudy SCT110 39.6 24.6 55% 30.13 0.0
02 07:15 Calm 10.00 Fair CLR 35.8 23.9 62% 30.13 0.0
02 06:55 Calm 10.00 Fair CLR 33.1 23.5 68% 30.13 0.0
02 06:35 Calm 10.00 Fair CLR 32 23.4 70% 30.12 0.0
02 06:15 SW 3 10.00 Fair CLR 29.7 21.7 72% 30.12 0.0
02 05:55 SW 3 10.00 Fair CLR 29.3 21.2 72% 30.11 0.0
02 05:35 SW 5 10.00 Fair CLR 30.2 21.2 69% 26 30.11 0.0
02 05:15 SW 5 10.00 Fair CLR 28.2 19.2 69% 24 30.11 0.0
02 04:55 Calm 10.00 Fair CLR 29.3 19.2 47.1 27 66% 30.11 0.0
02 04:35 Calm 10.00 Fair CLR 27.5 19.2 71% 30.11 0.0
02 04:15 SW 3 10.00 Fair CLR 31.3 21.2 66% 30.11 0.0
02 03:55 Calm 10.00 Fair CLR 30.6 20.5 66% 30.11 0.0
02 03:35 Calm 10.00 Fair CLR 30 21.6 71% 30.12 0.0
02 03:15 Calm 10.00 Fair CLR 30.6 22.3 71% 30.11 0.0
02 02:55 Calm 10.00 Fair CLR 32.4 23.4 69% 30.11 0.0
02 02:35 W 5 10.00 Fair CLR 34.2 22.8 63% 31 30.12 0.0
02 02:15 SW 3 10.00 Fair CLR 36.1 22.3 57% 30.12 0.0
02 01:55 SE 6 10.00 Fair CLR 36.5 22.6 57% 32 30.12 0.0
02 01:35 SE 3 10.00 Fair CLR 36.1 21.7 56% 30.12 0.0
02 01:15 S 3 10.00 Fair CLR 36.7 22.3 56% 30.12 0.0
02 00:55 S 5 10.00 Fair CLR 37.4 22.5 55% 34 30.12 0.0
02 00:35 SW 3 10.00 Fair CLR 40.6 23 49% 30.12 0.0
02 00:15 SW 9 10.00 Fair CLR 43.7 21.9 42% 39 30.12 0.0
01 23:55 SW 9 10.00 Fair CLR 41.5 23.9 50% 36 30.12 0.0
01 23:35 SW 7 10.00 Fair CLR 40.3 22.8 50% 36 30.11 0.0
01 23:15 Calm 10.00 Fair CLR 44.6 21 39% 30.11 0.0
01 22:55 Calm 10.00 Fair CLR 45.3 20.3 67.3 42.3 37% 30.11 0.0
01 22:35 NW 6 10.00 Fair CLR 43.9 21.6 41% 41 30.11 0.0
01 22:15 NW 7 10.00 Fair CLR 46.9 20.8 36% 44 30.11 0.0
01 21:55 W 5 10.00 Fair CLR 45 22.5 41% 43 30.11 0.0
01 21:35 Calm 10.00 Fair CLR 44.8 23.7 44% 30.1 0.0
01 21:15 Calm 10.00 Fair CLR 44.6 22.8 42% 30.1 0.0
01 20:55 E 3 10.00 Fair CLR 52.2 19 27% 30.1 0.0
01 20:35 E 5 10.00 Fair CLR 50.4 19.9 30% 30.09 0.0
01 20:15 E 5 10.00 Fair CLR 51.6 19.9 29% 30.08 0.0
01 19:55 E 8 10.00 Fair CLR 54.3 19.4 25% 30.08 0.0
01 19:35 E 9 10.00 Fair CLR 57.9 19 22% 30.08 0.0
01 19:15 E 7 10.00 Fair CLR 61.2 17.6 18% 30.08 0.0
01 18:55 E 7 10.00 Fair CLR 64.2 16 15% 30.07 0.0
01 18:15 E 7 10.00 Fair CLR 65.5 15.4 14% 30.07 0.0
01 17:55 NE 6 10.00 Fair CLR 66 15.8 14% 30.08 0.0
01 17:35 NE 7 10.00 Fair CLR 66.7 15.1 13% 30.08 0.0
01 17:15 E 3 10.00 Fair CLR 65.8 12.6 12% 30.08 0.0
01 16:55 SE 7 10.00 Fair CLR 67.3 13.8 67.6 57.7 12% 30.08 0.0
01 16:35 Calm 10.00 Fair CLR 65.3 13.6 13% 30.08 0.0
01 16:15 E 7 G 16 10.00 Fair CLR 66.2 14.7 13% 30.09 0.0
01 15:55 E 8 10.00 Fair CLR 65.8 15.4 14% 30.1 0.0
01 15:35 E 6 G 17 10.00 Fair CLR 66.9 17.6 15% 30.1 0.0
01 15:15 NW 5 10.00 Fair CLR 65.1 17.6 16% 30.11 0.0
01 14:55 NE 8 10.00 Fair CLR 66.2 19.2 16% 30.12 0.0
01 14:35 E 7 10.00 Fair CLR 66.4 21.4 18% 30.12 0.0
01 14:15 N 13 G 17 10.00 Fair CLR 64.9 20.5 18% 30.12 0.0
01 13:55 NE 7 G 16 10.00 Fair CLR 63.7 20.7 19% 30.13 0.0
01 13:35 N 9 G 22 10.00 Fair CLR 63.5 21.6 20% 30.14 0.0
01 13:15 N 13 G 17 10.00 Fair CLR 63 21 20% 30.15 0.0
01 12:55 NE 5 10.00 Fair CLR 61.7 19.8 20% 30.15 0.0
01 12:35 N 9 10.00 Fair CLR 61 20.3 21% 30.16 0.0
01 12:15 NE 7 G 16 10.00 Fair CLR 61.2 20.8 21% 30.17 0.0
01 11:55 NW 7 10.00 Fair CLR 59.4 20.1 22% 30.18 0.0
01 11:35 W 5 G 9 10.00 Fair CLR 59 20.1 22% 30.18 0.0
01 11:15 NW 6 10.00 Fair CLR 58.6 20.1 22% 30.18 0.0
01 10:55 NW 8 10.00 Fair CLR 57.4 21.6 58.1 20.8 25% 30.18 0.0
01 10:35 N 7 10.00 Fair CLR 56.7 23.5 28% 30.19 0.0
01 10:15 N 5 10.00 Fair CLR 54.7 24.8 31% 30.19 0.0
01 09:55 Calm 10.00 Fair CLR 52.7 25.2 34% 30.19 0.0
01 09:35 W 3 10.00 Fair CLR 51.3 26.1 38% 30.19 0.0
01 09:15 Calm 10.00 Fair CLR 49.8 26.8 41% 30.2 0.0
01 08:55 Calm 10.00 Fair CLR 47.7 27 45% 30.2 0.0
01 08:35 Calm 10.00 Fair CLR 45.5 28.2 51% 30.2 0.0
01 08:15 Calm 10.00 Fair CLR 41 28.6 61% 30.2 0.0
01 07:55 Calm 10.00 Fair CLR 36.7 27.3 69% 30.2 0.0
01 07:35 Calm 10.00 Fair CLR 34.7 25 68% 30.19 0.0
01 07:15 Calm 10.00 Fair CLR 31.6 24.4 75% 30.18 0.0
01 06:55 Calm 10.00 Fair CLR 27.3 22.6 83% 30.18 0.0
01 06:35 S 3 10.00 Fair CLR 23.2 20.3 89% 30.18 0.0
01 06:15 Calm 10.00 Fair CLR 20.8 18.5 91% 30.17 0.0
01 05:55 Calm 10.00 Fair CLR 25.5 21.2 84% 30.16 0.0
01 05:35 W 3 10.00 Fair CLR 24.8 21.2 86% 30.15 0.0
01 05:15 Calm 10.00 Fair CLR 25.3 20.5 82% 30.15 0.0
01 04:55 Calm 10.00 Fair CLR 24.3 19.9 36 21.6 84% 30.15 0.0
01 04:35 Calm 10.00 Fair CLR 22.3 19.2 88% 30.15 0.0
01 04:15 S 3 10.00 Fair CLR 21.9 18.5 87% 30.15 0.0
01 03:55 SW 5 10.00 Fair CLR 27.5 21.9 80% 23 30.15 0.0
01 03:35 Calm 10.00 Fair CLR 25.5 21.2 84% 30.14 0.0
01 03:15 Calm 10.00 Fair CLR 24.4 20.3 84% 30.14 0.0
01 02:55 NW 5 10.00 Fair CLR 27.9 22.5 80% 23 30.13 0.0
01 02:35 Calm 10.00 Fair CLR 29.5 21.9 73% 30.12 0.0
01 02:15 S 3 10.00 Fair CLR 27 21.2 79% 30.12 0.0
01 01:55 S 3 10.00 Fair CLR 29.1 22.6 77% 30.12 0.0
01 01:35 Calm 10.00 Fair CLR 30.6 23.9 76% 30.13 0.0
01 01:15 SW 8 10.00 Fair CLR 31.6 23.4 71% 25 30.13 0.0
01 00:55 SW 6 10.00 Fair CLR 30.6 23.5 75% 25 30.13 0.0
01 00:35 S 5 10.00 Fair CLR 30.4 23.9 77% 26 30.12 0.0
01 00:15 SW 5 10.00 Fair CLR 32.9 24.8 72% 29 30.12 0.0
30 23:55 Calm 10.00 Fair CLR 32.4 22.5 67% 30.12 0.0
30 23:35 S 5 10.00 Fair CLR 33.6 22.6 64% 30 30.11 0.0
30 23:15 S 6 10.00 Fair CLR 32 22.5 68% 27 30.11 0.0
30 22:55 W 5 10.00 Fair CLR 36 25.3 63.5 35.8 65% 33 30.11 0.0
30 22:35 W 5 10.00 Fair CLR 36 25.5 66% 33 30.11 0.0
30 22:15 W 5 10.00 Fair CLR 39.7 25.2 56% 37 30.1 0.0
30 21:55 NE 5 10.00 Fair CLR 46.2 21.2 37% 45 30.1 0.0
30 21:35 NE 3 10.00 Fair CLR 46.2 21.4 37% 30.1 0.0
30 21:15 Calm 10.00 Fair CLR 46.4 22.1 38% 30.09 0.0
30 20:55 Calm 10.00 Fair CLR 46.4 22.8 39% 30.08 0.0
30 20:35 NE 3 10.00 Fair CLR 46.2 23.9 42% 30.08 0.0
30 20:15 N 5 10.00 Fair CLR 50.4 24.4 36% 30.07 0.0
30 19:55 N 7 10.00 Fair CLR 53.6 22.8 30% 30.06 0.0
30 19:35 N 7 10.00 Fair CLR 55.8 21.2 26% 30.06 0.0
30 19:15 N 9 10.00 Fair CLR 58.1 19.9 23% 30.06 0.0
30 18:55 NE 9 10.00 Partly Cloudy SCT100 58.6 21.7 24% 30.06 0.0
30 18:35 N 9 10.00 Mostly Cloudy BKN100 60.1 21.2 22% 30.05 0.0
30 18:15 N 9 10.00 Partly Cloudy SCT100 60.4 21 22% 30.05 0.0
30 17:55 N 9 10.00 Partly Cloudy SCT100 60.3 20.1 21% 30.05 0.0
30 17:35 N 10 10.00 Mostly Cloudy BKN100 60.8 19 20% 30.05 0.0
30 17:15 N 7 10.00 Partly Cloudy SCT100 61.9 20.7 20% 30.05 0.0
30 16:55 NE 13 G 18 10.00 Partly Cloudy SCT100 62.6 19.8 63.7 56.5 19% 30.05 0.0
30 16:35 NW 10 G 18 10.00 Mostly Cloudy BKN100 63.5 21.4 20% 30.06 0.0
30 16:15 NE 10 10.00 Partly Cloudy SCT090 62.2 20.3 20% 30.05 0.0
30 15:55 E 7 10.00 Partly Cloudy SCT090 62.1 22.1 22% 30.06 0.0
30 15:35 N 10 G 18 10.00 Partly Cloudy SCT090 63.1 24.3 23% 30.07 0.0
30 15:15 N 6 10.00 Mostly Cloudy BKN090 60.4 22.6 23% 30.08 0.0
30 14:55 N 8 G 17 10.00 Mostly Cloudy BKN090 61.3 23.9 24% 30.08 0.0
30 14:35 N 9 10.00 Mostly Cloudy BKN090 62.4 23.7 23% 30.09 0.0
30 14:15 NE 7 10.00 Partly Cloudy SCT090 61.5 23.4 23% 30.09 0.0
30 13:55 Calm 10.00 Partly Cloudy SCT080 61.2 23.9 24% 30.1 0.0
30 13:35 Calm 10.00 Mostly Cloudy BKN080 58.6 24.8 27% 30.1 0.0
30 13:15 NW 3 10.00 Mostly Cloudy BKN090 59 24.3 26% 30.1 0.0
30 12:55 NW 7 10.00 Partly Cloudy SCT090 59.7 23.4 25% 30.1 0.0
30 12:35 N 3 10.00 Partly Cloudy SCT080 60.4 24.1 25% 30.11 0.0
30 12:15 Calm 10.00 Partly Cloudy SCT080 59.7 24.3 26% 30.12 0.0
30 11:55 E 7 10.00 Fair CLR 59.5 24.3 26% 30.12 0.0
30 11:35 E 6 G 16 10.00 Fair CLR 57.7 23.5 27% 30.13 0.0
30 11:15 Calm 10.00 Fair CLR 56.8 25.9 30% 30.14 0.0
30 10:55 N 5 10.00 Fair CLR 56.7 26.4 57.4 24.1 31% 30.15 0.0
30 10:35 NW 3 10.00 Fair CLR 54.5 28.6 37% 30.15 0.0
30 10:15 Calm 10.00 Fair CLR 52.5 28.2 39% 30.15 0.0
30 09:55 Calm 10.00 Fair CLR 50.9 27.9 41% 30.15 0.0
30 09:35 Calm 10.00 Fair CLR 48.4 28.4 46% 30.16 0.0
30 09:15 Calm 10.00 Fair CLR 46.9 27.5 47% 30.16 0.0
30 08:55 Calm 10.00 Fair CLR 45.5 28.2 51% 30.16 0.0
30 08:35 Calm 10.00 Fair CLR 42.8 28.9 58% 30.16 0.0
30 08:15 Calm 10.00 Fair CLR 39.4 28.4 65% 30.17 0.0
30 07:55 Calm 10.00 Fair CLR 36.1 27.7 71% 30.18 0.0
30 07:35 Calm 10.00 Fair CLR 33.1 27.3 79% 30.17 0.0
30 07:15 Calm 10.00 Fair CLR 30.6 26.1 83% 30.17 0.0
30 06:55 Calm 10.00 Fair CLR 28.4 25.2 88% 30.17 0.0
30 06:35 Calm 10.00 Fair CLR 28 24.8 88% 30.16 0.0
30 06:15 Calm 10.00 Fair CLR 26.1 23.4 90% 30.16 0.0
30 05:55 W 5 10.00 Fair CLR 25.2 22.8 91% 20 30.15 0.0
30 05:35 Calm 10.00 Fair CLR 25.7 23.2 90% 30.15 0.0
30 05:15 Calm 10.00 Fair CLR 24.3 22.6 94% 30.15 0.0
30 04:55 SW 5 10.00 Fair CLR 25.5 23.5 38.1 24.4 92% 21 30.15 0.0
30 04:35 SW 5 10.00 Fair CLR 25.9 23 89% 21 30.15 0.0
30 04:15 S 3 10.00 Fair CLR 24.8 23 93% 30.15 0.0
30 03:55 Calm 10.00 Fair CLR 28.4 24.6 86% 30.15 0.0
30 03:35 W 6 10.00 Fair CLR 28.9 25.3 86% 23 30.15 0.0
30 03:15 SW 6 10.00 Fair CLR 29.1 25.3 86% 24 30.14 0.0
30 02:55 SW 5 10.00 Fair CLR 27.3 24.4 89% 23 30.14 0.0
30 02:35 SW 5 10.00 Fair CLR 27.5 24.6 89% 23 30.14 0.0
30 02:15 SW 5 10.00 Fair CLR 30 25.7 84% 26 30.15 0.0
30 01:55 SW 6 10.00 Fair CLR 30 25.5 83% 25 30.15 0.0
30 01:35 SW 3 10.00 Fair CLR 31.6 26.1 80% 30.15 0.0
30 01:15 SW 5 10.00 Fair CLR 28 23.4 83% 24 30.15 0.0
30 00:55 Calm 10.00 Fair CLR 30.2 24.1 78% 30.15 0.0
30 00:35 Calm 10.00 Fair CLR 30.7 24.8 79% 30.15 0.0
30 00:15 Calm 10.00 Fair CLR 34.9 27.1 73% 30.15 0.0
29 23:55 W 3 10.00 Fair CLR 34.9 27 73% 30.15 0.0
29 23:35 Calm 10.00 Fair CLR 36 27.3 71% 30.15 0.0
29 23:15 Calm 10.00 Fair CLR 36.1 27 69% 30.14 0.0
29 22:55 N 6 10.00 Fair CLR 38.5 27.5 59.9 38.5 65% 35 30.14 0.0
29 22:35 N 3 10.00 Fair CLR 39.4 27.9 63% 30.14 0.0
29 22:15 N 7 10.00 Partly Cloudy SCT120 39.2 28 64% 35 30.14 0.0
29 21:55 Calm 10.00 Mostly Cloudy BKN120 45.1 26.8 49% 30.14 0.0
29 21:35 Calm 10.00 Fair CLR 44.4 26.8 50% 30.14 0.0
29 21:15 E 5 10.00 Partly Cloudy SCT090 SCT110 44.1 26.8 51% 42 30.13 0.0
29 20:55 NE 7 10.00 Partly Cloudy SCT100 48 26.1 42% 45 30.13 0.0
29 20:35 N 7 10.00 Partly Cloudy SCT110 49.6 25.3 39% 47 30.12 0.0
29 20:15 NE 7 10.00 Partly Cloudy SCT110 51.8 25.2 36% 30.11 0.0
29 19:55 N 7 10.00 Mostly Cloudy BKN100 53.6 25.5 34% 30.1 0.0
29 19:35 NE 8 10.00 Overcast OVC100 55.4 23.4 29% 30.1 0.0
29 19:15 N 7 10.00 Mostly Cloudy BKN100 57.2 23.5 27% 30.09 0.0
29 18:55 NE 6 10.00 Overcast OVC100 56.3 24.4 29% 30.09 0.0
29 18:35 NE 6 10.00 Overcast OVC110 56.7 24.3 29% 30.1 0.0
29 18:15 NE 8 10.00 Mostly Cloudy BKN110 57.4 22.6 26% 30.09 0.0
29 17:55 NE 9 10.00 Partly Cloudy SCT095 SCT110 59 23 25% 30.09 0.0
29 17:35 N 7 10.00 Mostly Cloudy SCT095 BKN110 59 22.5 24% 30.09 0.0
29 17:15 Calm 10.00 Mostly Cloudy BKN110 58.1 21.4 24% 30.09 0.0
29 16:55 NW 6 10.00 Partly Cloudy SCT110 58.5 22.5 60.6 53.6 25% 30.09 0.0
29 16:35 NW 6 10.00 Mostly Cloudy BKN110 58.3 23 26% 30.09 0.0
29 16:15 NW 6 10.00 Partly Cloudy SCT110 58.1 22.3 25% 30.1 0.0
29 15:55 NW 8 10.00 Mostly Cloudy BKN110 58.6 23.5 26% 30.1 0.0
29 15:35 Calm 10.00 Mostly Cloudy BKN100 58.6 21.6 24% 30.1 0.0
Date Time (pdt) Wind (mph) Vis. (mi.) Weather Sky Cond. Air Dwpt Max. Min. Relative Humidity Wind Chill (°F) Heat Index (°F) altimeter (in) sea level (mb) 1 hr 3 hr 6 hr
6 hour
Temperature (ºF) Pressure Precipitation (in)